Norfolk, Virginia
Traffic Map
Current Weather Conditions
Norfolk, Virginia
Clear
Clear
24°
Feels Like: 24°
Wind Chill: 24° Ceiling: Unl
Heat Index: 24° Visibility: 10mi
Dew Point: 23° Wind: 10mph
Humidity: 91% Direction: 220° (SW)
Pressure: 30.07in Gusts: 0mph
Raw Report DataKORF 011051Z AUTO 22009KT 10SM CLR 24/23 A3007 RMK AO2 SLP183 T02440228 TSNO
Traffic Incident Summary
Active as of:
Severity:
Category:
InformationThere was an issue retrieving the traffic information for this location. Please try a different location or try again shortly.
Advertisements
Track Severe Weather on mobile